sensor_id;sensor_type;location;lat;lon;timestamp;P1;durP1;ratioP1;P2;durP2;ratioP2
1136;SDS011;557;48.466;7.950;2022-12-18T00:02:43;45.07;;;18.10;;
1136;SDS011;557;48.466;7.950;2022-12-18T00:05:29;33.00;;;11.63;;
1136;SDS011;557;48.466;7.950;2022-12-18T00:08:15;27.90;;;15.40;;
1136;SDS011;557;48.466;7.950;2022-12-18T00:11:03;42.73;;;16.23;;
1136;SDS011;557;48.466;7.950;2022-12-18T00:13:50;26.83;;;12.77;;
1136;SDS011;557;48.466;7.950;2022-12-18T00:16:38;36.77;;;13.90;;
1136;SDS011;557;48.466;7.950;2022-12-18T00:19:24;47.17;;;12.43;;
1136;SDS011;557;48.466;7.950;2022-12-18T00:22:10;38.97;;;13.50;;
1136;SDS011;557;48.466;7.950;2022-12-18T00:24:55;25.23;;;12.03;;
1136;SDS011;557;48.466;7.950;2022-12-18T00:27:41;41.30;;;11.73;;
1136;SDS011;557;48.466;7.950;2022-12-18T00:30:28;36.40;;;14.83;;
1136;SDS011;557;48.466;7.950;2022-12-18T00:33:14;29.87;;;11.60;;
1136;SDS011;557;48.466;7.950;2022-12-18T00:36:00;43.93;;;13.93;;
1136;SDS011;557;48.466;7.950;2022-12-18T00:38:46;34.47;;;13.83;;
1136;SDS011;557;48.466;7.950;2022-12-18T00:41:33;42.30;;;14.47;;
1136;SDS011;557;48.466;7.950;2022-12-18T00:44:37;24.47;;;9.00;;
1136;SDS011;557;48.466;7.950;2022-12-18T00:47:23;25.47;;;12.60;;
1136;SDS011;557;48.466;7.950;2022-12-18T00:50:09;32.83;;;12.10;;
1136;SDS011;557;48.466;7.950;2022-12-18T00:52:55;45.63;;;13.07;;
1136;SDS011;557;48.466;7.950;2022-12-18T00:55:42;29.00;;;14.40;;
1136;SDS011;557;48.466;7.950;2022-12-18T00:58:28;51.17;;;14.90;;
1136;SDS011;557;48.466;7.950;2022-12-18T01:01:13;37.80;;;13.70;;
1136;SDS011;557;48.466;7.950;2022-12-18T01:04:01;28.27;;;11.47;;
1136;SDS011;557;48.466;7.950;2022-12-18T01:06:47;32.23;;;11.90;;
1136;SDS011;557;48.466;7.950;2022-12-18T01:09:33;35.07;;;12.47;;
1136;SDS011;557;48.466;7.950;2022-12-18T01:12:19;35.23;;;13.70;;
1136;SDS011;557;48.466;7.950;2022-12-18T01:15:05;30.80;;;11.13;;
1136;SDS011;557;48.466;7.950;2022-12-18T01:17:52;35.57;;;11.77;;
1136;SDS011;557;48.466;7.950;2022-12-18T01:20:40;27.67;;;13.10;;
1136;SDS011;557;48.466;7.950;2022-12-18T01:23:25;31.10;;;13.13;;
1136;SDS011;557;48.466;7.950;2022-12-18T01:26:12;23.50;;;10.30;;
1136;SDS011;557;48.466;7.950;2022-12-18T01:28:59;27.97;;;11.40;;
1136;SDS011;557;48.466;7.950;2022-12-18T01:31:44;40.23;;;14.37;;
1136;SDS011;557;48.466;7.950;2022-12-18T01:34:30;32.47;;;12.83;;
1136;SDS011;557;48.466;7.950;2022-12-18T01:37:17;23.30;;;9.33;;
1136;SDS011;557;48.466;7.950;2022-12-18T01:40:03;37.77;;;10.83;;
1136;SDS011;557;48.466;7.950;2022-12-18T01:42:50;30.50;;;11.90;;
1136;SDS011;557;48.466;7.950;2022-12-18T01:45:37;30.83;;;11.03;;
1136;SDS011;557;48.466;7.950;2022-12-18T01:48:23;26.67;;;11.10;;
1136;SDS011;557;48.466;7.950;2022-12-18T01:51:09;34.70;;;13.90;;
1136;SDS011;557;48.466;7.950;2022-12-18T01:53:57;37.80;;;11.23;;
1136;SDS011;557;48.466;7.950;2022-12-18T01:56:44;47.20;;;12.63;;
1136;SDS011;557;48.466;7.950;2022-12-18T01:59:30;40.93;;;11.70;;
1136;SDS011;557;48.466;7.950;2022-12-18T02:02:17;24.67;;;9.67;;
1136;SDS011;557;48.466;7.950;2022-12-18T02:05:05;32.10;;;11.10;;
1136;SDS011;557;48.466;7.950;2022-12-18T02:07:55;29.13;;;12.27;;
1136;SDS011;557;48.466;7.950;2022-12-18T02:10:51;35.67;;;11.70;;
1136;SDS011;557;48.466;7.950;2022-12-18T02:13:44;36.53;;;13.50;;
1136;SDS011;557;48.466;7.950;2022-12-18T02:16:39;25.00;;;10.80;;
1136;SDS011;557;48.466;7.950;2022-12-18T02:19:41;34.07;;;11.67;;
1136;SDS011;557;48.466;7.950;2022-12-18T02:22:37;31.33;;;11.00;;
1136;SDS011;557;48.466;7.950;2022-12-18T02:25:35;36.57;;;12.37;;
1136;SDS011;557;48.466;7.950;2022-12-18T02:28:44;38.17;;;10.67;;
1136;SDS011;557;48.466;7.950;2022-12-18T02:31:33;43.70;;;13.03;;
1136;SDS011;557;48.466;7.950;2022-12-18T02:34:24;33.23;;;9.77;;
1136;SDS011;557;48.466;7.950;2022-12-18T02:37:15;33.83;;;14.73;;
1136;SDS011;557;48.466;7.950;2022-12-18T02:40:04;27.23;;;10.60;;
1136;SDS011;557;48.466;7.950;2022-12-18T02:42:52;25.33;;;11.40;;
1136;SDS011;557;48.466;7.950;2022-12-18T02:45:45;30.93;;;10.17;;
1136;SDS011;557;48.466;7.950;2022-12-18T02:48:32;26.83;;;9.63;;
1136;SDS011;557;48.466;7.950;2022-12-18T02:51:21;26.67;;;8.63;;
1136;SDS011;557;48.466;7.950;2022-12-18T02:54:15;30.57;;;11.30;;
1136;SDS011;557;48.466;7.950;2022-12-18T02:57:11;23.13;;;10.97;;
1136;SDS011;557;48.466;7.950;2022-12-18T03:00:04;34.47;;;11.13;;
1136;SDS011;557;48.466;7.950;2022-12-18T03:02:55;25.37;;;10.00;;
1136;SDS011;557;48.466;7.950;2022-12-18T03:05:46;26.90;;;10.50;;
1136;SDS011;557;48.466;7.950;2022-12-18T03:08:39;31.60;;;8.70;;
1136;SDS011;557;48.466;7.950;2022-12-18T03:11:28;33.67;;;10.77;;
1136;SDS011;557;48.466;7.950;2022-12-18T03:14:36;41.97;;;11.90;;
1136;SDS011;557;48.466;7.950;2022-12-18T03:17:25;37.20;;;10.90;;
1136;SDS011;557;48.466;7.950;2022-12-18T03:20:14;22.17;;;9.27;;
1136;SDS011;557;48.466;7.950;2022-12-18T03:23:03;33.43;;;11.57;;
1136;SDS011;557;48.466;7.950;2022-12-18T03:25:54;24.07;;;9.83;;
1136;SDS011;557;48.466;7.950;2022-12-18T03:28:44;36.73;;;10.30;;
1136;SDS011;557;48.466;7.950;2022-12-18T03:31:35;22.07;;;9.93;;
1136;SDS011;557;48.466;7.950;2022-12-18T03:34:26;20.17;;;9.27;;
1136;SDS011;557;48.466;7.950;2022-12-18T03:37:17;15.47;;;8.23;;
1136;SDS011;557;48.466;7.950;2022-12-18T03:40:02;19.70;;;9.43;;
1136;SDS011;557;48.466;7.950;2022-12-18T03:42:51;30.00;;;11.90;;
1136;SDS011;557;48.466;7.950;2022-12-18T03:45:43;33.33;;;11.37;;
1136;SDS011;557;48.466;7.950;2022-12-18T03:48:37;31.30;;;10.37;;
1136;SDS011;557;48.466;7.950;2022-12-18T03:51:28;25.73;;;10.10;;
1136;SDS011;557;48.466;7.950;2022-12-18T03:54:22;17.10;;;7.60;;
1136;SDS011;557;48.466;7.950;2022-12-18T03:57:12;25.97;;;9.33;;
1136;SDS011;557;48.466;7.950;2022-12-18T04:00:05;26.20;;;7.07;;
1136;SDS011;557;48.466;7.950;2022-12-18T04:02:53;32.53;;;9.77;;
1136;SDS011;557;48.466;7.950;2022-12-18T04:05:41;21.90;;;9.13;;
1136;SDS011;557;48.466;7.950;2022-12-18T04:08:31;25.43;;;8.00;;
1136;SDS011;557;48.466;7.950;2022-12-18T04:11:18;30.43;;;9.13;;
1136;SDS011;557;48.466;7.950;2022-12-18T04:14:04;28.10;;;9.90;;
1136;SDS011;557;48.466;7.950;2022-12-18T04:16:50;17.50;;;6.40;;
1136;SDS011;557;48.466;7.950;2022-12-18T04:19:36;21.30;;;8.07;;
1136;SDS011;557;48.466;7.950;2022-12-18T04:22:21;14.60;;;6.50;;
1136;SDS011;557;48.466;7.950;2022-12-18T04:25:12;27.07;;;12.07;;
1136;SDS011;557;48.466;7.950;2022-12-18T04:27:58;16.97;;;6.20;;
1136;SDS011;557;48.466;7.950;2022-12-18T04:30:43;20.37;;;7.47;;
1136;SDS011;557;48.466;7.950;2022-12-18T04:33:29;25.03;;;9.43;;
1136;SDS011;557;48.466;7.950;2022-12-18T04:36:15;22.37;;;9.47;;
1136;SDS011;557;48.466;7.950;2022-12-18T04:39:01;20.13;;;10.53;;
1136;SDS011;557;48.466;7.950;2022-12-18T04:41:47;29.53;;;11.50;;
1136;SDS011;557;48.466;7.950;2022-12-18T04:44:33;18.87;;;8.63;;
1136;SDS011;557;48.466;7.950;2022-12-18T04:47:19;31.03;;;9.30;;
1136;SDS011;557;48.466;7.950;2022-12-18T04:50:10;19.77;;;8.00;;
1136;SDS011;557;48.466;7.950;2022-12-18T04:52:56;23.27;;;9.60;;
1136;SDS011;557;48.466;7.950;2022-12-18T04:55:42;24.90;;;8.47;;
1136;SDS011;557;48.466;7.950;2022-12-18T04:58:29;21.77;;;8.83;;
1136;SDS011;557;48.466;7.950;2022-12-18T05:01:15;28.90;;;10.20;;
1136;SDS011;557;48.466;7.950;2022-12-18T05:04:01;36.07;;;10.93;;
1136;SDS011;557;48.466;7.950;2022-12-18T05:06:47;15.07;;;8.00;;
1136;SDS011;557;48.466;7.950;2022-12-18T05:09:32;22.93;;;11.53;;
1136;SDS011;557;48.466;7.950;2022-12-18T05:12:18;26.93;;;9.43;;
1136;SDS011;557;48.466;7.950;2022-12-18T05:15:08;19.90;;;8.20;;
1136;SDS011;557;48.466;7.950;2022-12-18T05:17:55;25.60;;;9.70;;
1136;SDS011;557;48.466;7.950;2022-12-18T05:20:41;13.97;;;9.40;;
1136;SDS011;557;48.466;7.950;2022-12-18T05:23:47;23.13;;;8.63;;
1136;SDS011;557;48.466;7.950;2022-12-18T05:26:33;24.83;;;11.00;;
1136;SDS011;557;48.466;7.950;2022-12-18T05:29:19;24.33;;;7.50;;
1136;SDS011;557;48.466;7.950;2022-12-18T05:32:06;27.13;;;11.57;;
1136;SDS011;557;48.466;7.950;2022-12-18T05:34:52;24.83;;;10.03;;
1136;SDS011;557;48.466;7.950;2022-12-18T05:37:37;23.00;;;8.40;;
1136;SDS011;557;48.466;7.950;2022-12-18T05:40:22;16.30;;;7.30;;
1136;SDS011;557;48.466;7.950;2022-12-18T05:43:08;23.37;;;9.10;;
1136;SDS011;557;48.466;7.950;2022-12-18T05:45:55;28.93;;;10.53;;
1136;SDS011;557;48.466;7.950;2022-12-18T05:48:43;21.20;;;7.60;;
1136;SDS011;557;48.466;7.950;2022-12-18T05:51:38;31.50;;;10.73;;
1136;SDS011;557;48.466;7.950;2022-12-18T05:54:24;18.03;;;8.57;;
1136;SDS011;557;48.466;7.950;2022-12-18T05:57:11;19.80;;;8.83;;
1136;SDS011;557;48.466;7.950;2022-12-18T05:59:57;19.70;;;7.57;;
1136;SDS011;557;48.466;7.950;2022-12-18T06:02:46;15.73;;;6.57;;
1136;SDS011;557;48.466;7.950;2022-12-18T06:05:35;30.30;;;11.47;;
1136;SDS011;557;48.466;7.950;2022-12-18T06:08:21;18.17;;;7.47;;
1136;SDS011;557;48.466;7.950;2022-12-18T06:11:07;21.50;;;9.10;;
1136;SDS011;557;48.466;7.950;2022-12-18T06:13:55;19.70;;;9.63;;
1136;SDS011;557;48.466;7.950;2022-12-18T06:16:41;20.53;;;10.33;;
1136;SDS011;557;48.466;7.950;2022-12-18T06:19:29;24.20;;;9.77;;
1136;SDS011;557;48.466;7.950;2022-12-18T06:22:16;26.90;;;9.00;;
1136;SDS011;557;48.466;7.950;2022-12-18T06:25:02;18.73;;;7.20;;
1136;SDS011;557;48.466;7.950;2022-12-18T06:27:48;13.70;;;7.80;;
1136;SDS011;557;48.466;7.950;2022-12-18T06:30:34;20.53;;;11.70;;
1136;SDS011;557;48.466;7.950;2022-12-18T06:33:20;17.70;;;6.00;;
1136;SDS011;557;48.466;7.950;2022-12-18T06:39:23;22.80;;;7.73;;
1136;SDS011;557;48.466;7.950;2022-12-18T06:42:09;19.63;;;7.03;;
1136;SDS011;557;48.466;7.950;2022-12-18T06:44:55;32.40;;;9.47;;
1136;SDS011;557;48.466;7.950;2022-12-18T06:47:40;23.03;;;10.43;;
1136;SDS011;557;48.466;7.950;2022-12-18T06:50:26;16.83;;;7.53;;
1136;SDS011;557;48.466;7.950;2022-12-18T06:53:12;18.50;;;7.73;;
1136;SDS011;557;48.466;7.950;2022-12-18T06:56:02;28.77;;;7.87;;
1136;SDS011;557;48.466;7.950;2022-12-18T06:58:49;38.03;;;10.50;;
1136;SDS011;557;48.466;7.950;2022-12-18T07:01:35;24.03;;;8.53;;
1136;SDS011;557;48.466;7.950;2022-12-18T07:04:21;23.00;;;8.00;;
1136;SDS011;557;48.466;7.950;2022-12-18T07:07:07;13.33;;;6.30;;
1136;SDS011;557;48.466;7.950;2022-12-18T07:09:52;21.00;;;5.90;;
1136;SDS011;557;48.466;7.950;2022-12-18T07:12:42;21.97;;;10.90;;
1136;SDS011;557;48.466;7.950;2022-12-18T07:15:28;24.77;;;8.70;;
1136;SDS011;557;48.466;7.950;2022-12-18T07:18:13;17.20;;;7.70;;
1136;SDS011;557;48.466;7.950;2022-12-18T07:21:01;24.37;;;8.17;;
1136;SDS011;557;48.466;7.950;2022-12-18T07:23:48;19.10;;;8.17;;
1136;SDS011;557;48.466;7.950;2022-12-18T07:26:34;13.60;;;7.73;;
1136;SDS011;557;48.466;7.950;2022-12-18T07:29:21;24.00;;;9.10;;
1136;SDS011;557;48.466;7.950;2022-12-18T07:32:07;29.03;;;10.30;;
1136;SDS011;557;48.466;7.950;2022-12-18T07:34:52;26.80;;;7.63;;
1136;SDS011;557;48.466;7.950;2022-12-18T07:37:41;16.80;;;8.50;;
1136;SDS011;557;48.466;7.950;2022-12-18T07:40:27;25.90;;;8.80;;
1136;SDS011;557;48.466;7.950;2022-12-18T07:43:12;12.07;;;5.87;;
1136;SDS011;557;48.466;7.950;2022-12-18T07:45:59;19.00;;;6.80;;
1136;SDS011;557;48.466;7.950;2022-12-18T07:48:45;14.20;;;5.70;;
1136;SDS011;557;48.466;7.950;2022-12-18T07:51:31;13.70;;;6.00;;
1136;SDS011;557;48.466;7.950;2022-12-18T07:54:16;22.90;;;8.17;;
1136;SDS011;557;48.466;7.950;2022-12-18T07:57:02;15.20;;;7.80;;
1136;SDS011;557;48.466;7.950;2022-12-18T07:59:48;14.53;;;8.57;;
1136;SDS011;557;48.466;7.950;2022-12-18T08:02:38;16.10;;;8.50;;
1136;SDS011;557;48.466;7.950;2022-12-18T08:05:24;29.67;;;9.53;;
1136;SDS011;557;48.466;7.950;2022-12-18T08:08:10;22.60;;;8.67;;
1136;SDS011;557;48.466;7.950;2022-12-18T08:10:56;19.63;;;8.30;;
1136;SDS011;557;48.466;7.950;2022-12-18T08:14:15;30.63;;;11.00;;
1136;SDS011;557;48.466;7.950;2022-12-18T08:17:01;36.30;;;11.10;;
1136;SDS011;557;48.466;7.950;2022-12-18T08:19:49;16.20;;;6.77;;
1136;SDS011;557;48.466;7.950;2022-12-18T08:22:39;17.33;;;8.13;;
1136;SDS011;557;48.466;7.950;2022-12-18T08:25:25;21.57;;;9.60;;
1136;SDS011;557;48.466;7.950;2022-12-18T08:28:10;20.67;;;9.10;;
1136;SDS011;557;48.466;7.950;2022-12-18T08:30:56;23.77;;;10.30;;
1136;SDS011;557;48.466;7.950;2022-12-18T08:33:42;23.10;;;8.33;;
1136;SDS011;557;48.466;7.950;2022-12-18T08:36:29;19.83;;;8.77;;
1136;SDS011;557;48.466;7.950;2022-12-18T08:39:15;30.97;;;10.20;;
1136;SDS011;557;48.466;7.950;2022-12-18T08:42:10;19.40;;;8.20;;
1136;SDS011;557;48.466;7.950;2022-12-18T08:45:14;27.30;;;11.00;;
1136;SDS011;557;48.466;7.950;2022-12-18T08:48:00;19.83;;;10.83;;
1136;SDS011;557;48.466;7.950;2022-12-18T08:50:54;23.73;;;10.17;;
1136;SDS011;557;48.466;7.950;2022-12-18T08:53:43;22.73;;;8.90;;
1136;SDS011;557;48.466;7.950;2022-12-18T08:56:29;18.50;;;9.13;;
1136;SDS011;557;48.466;7.950;2022-12-18T08:59:15;25.83;;;9.77;;
1136;SDS011;557;48.466;7.950;2022-12-18T09:02:01;23.93;;;10.60;;
1136;SDS011;557;48.466;7.950;2022-12-18T09:04:46;23.70;;;9.70;;
1136;SDS011;557;48.466;7.950;2022-12-18T09:07:32;22.13;;;9.10;;
1136;SDS011;557;48.466;7.950;2022-12-18T09:10:30;18.60;;;12.17;;
1136;SDS011;557;48.466;7.950;2022-12-18T09:13:17;18.77;;;8.17;;
1136;SDS011;557;48.466;7.950;2022-12-18T09:16:04;21.90;;;8.60;;
1136;SDS011;557;48.466;7.950;2022-12-18T09:18:51;21.73;;;10.83;;
1136;SDS011;557;48.466;7.950;2022-12-18T09:21:37;17.87;;;9.20;;
1136;SDS011;557;48.466;7.950;2022-12-18T09:24:23;28.67;;;10.03;;
1136;SDS011;557;48.466;7.950;2022-12-18T09:27:14;28.17;;;10.40;;
1136;SDS011;557;48.466;7.950;2022-12-18T09:30:00;19.87;;;9.97;;
1136;SDS011;557;48.466;7.950;2022-12-18T09:32:46;19.60;;;7.87;;
1136;SDS011;557;48.466;7.950;2022-12-18T09:35:31;32.17;;;8.63;;
1136;SDS011;557;48.466;7.950;2022-12-18T09:38:18;21.53;;;8.13;;
1136;SDS011;557;48.466;7.950;2022-12-18T09:41:04;28.80;;;10.47;;
1136;SDS011;557;48.466;7.950;2022-12-18T09:43:53;15.80;;;7.70;;
1136;SDS011;557;48.466;7.950;2022-12-18T09:46:43;22.70;;;9.20;;
1136;SDS011;557;48.466;7.950;2022-12-18T09:49:38;21.50;;;9.37;;
1136;SDS011;557;48.466;7.950;2022-12-18T09:52:27;28.93;;;12.33;;
1136;SDS011;557;48.466;7.950;2022-12-18T09:55:20;39.03;;;10.93;;
1136;SDS011;557;48.466;7.950;2022-12-18T09:58:12;22.93;;;8.43;;
1136;SDS011;557;48.466;7.950;2022-12-18T10:01:06;19.40;;;9.97;;
1136;SDS011;557;48.466;7.950;2022-12-18T10:03:56;30.30;;;10.30;;
1136;SDS011;557;48.466;7.950;2022-12-18T10:06:43;16.07;;;7.67;;
1136;SDS011;557;48.466;7.950;2022-12-18T10:09:37;32.50;;;12.90;;
1136;SDS011;557;48.466;7.950;2022-12-18T10:12:28;27.30;;;11.53;;
1136;SDS011;557;48.466;7.950;2022-12-18T10:15:20;20.37;;;10.13;;
1136;SDS011;557;48.466;7.950;2022-12-18T10:18:15;31.33;;;11.50;;
1136;SDS011;557;48.466;7.950;2022-12-18T10:21:11;19.60;;;9.47;;
1136;SDS011;557;48.466;7.950;2022-12-18T10:24:05;38.43;;;12.77;;
1136;SDS011;557;48.466;7.950;2022-12-18T10:27:06;26.03;;;9.37;;
1136;SDS011;557;48.466;7.950;2022-12-18T10:29:57;27.70;;;10.90;;
1136;SDS011;557;48.466;7.950;2022-12-18T10:32:43;36.53;;;13.90;;
1136;SDS011;557;48.466;7.950;2022-12-18T10:35:31;31.97;;;14.30;;
1136;SDS011;557;48.466;7.950;2022-12-18T10:38:20;29.87;;;13.57;;
1136;SDS011;557;48.466;7.950;2022-12-18T10:41:22;27.33;;;13.60;;
1136;SDS011;557;48.466;7.950;2022-12-18T10:44:11;28.03;;;12.57;;
1136;SDS011;557;48.466;7.950;2022-12-18T10:47:02;44.23;;;13.03;;
1136;SDS011;557;48.466;7.950;2022-12-18T10:49:52;28.97;;;12.67;;
1136;SDS011;557;48.466;7.950;2022-12-18T10:52:43;29.80;;;13.10;;
1136;SDS011;557;48.466;7.950;2022-12-18T10:55:31;27.97;;;11.50;;
1136;SDS011;557;48.466;7.950;2022-12-18T10:58:21;33.27;;;12.40;;
1136;SDS011;557;48.466;7.950;2022-12-18T11:01:10;26.53;;;11.23;;
1136;SDS011;557;48.466;7.950;2022-12-18T11:04:01;28.17;;;12.70;;
1136;SDS011;557;48.466;7.950;2022-12-18T11:06:53;25.50;;;11.30;;
1136;SDS011;557;48.466;7.950;2022-12-18T11:09:43;32.57;;;11.20;;
1136;SDS011;557;48.466;7.950;2022-12-18T11:12:29;24.00;;;9.93;;
1136;SDS011;557;48.466;7.950;2022-12-18T11:15:16;23.63;;;10.50;;
1136;SDS011;557;48.466;7.950;2022-12-18T11:18:13;27.13;;;11.87;;
1136;SDS011;557;48.466;7.950;2022-12-18T11:21:05;28.07;;;10.60;;
1136;SDS011;557;48.466;7.950;2022-12-18T11:23:55;27.17;;;12.57;;
1136;SDS011;557;48.466;7.950;2022-12-18T11:26:42;25.00;;;10.77;;
1136;SDS011;557;48.466;7.950;2022-12-18T11:29:30;23.10;;;11.50;;
1136;SDS011;557;48.466;7.950;2022-12-18T11:32:21;20.73;;;11.73;;
1136;SDS011;557;48.466;7.950;2022-12-18T11:35:15;26.83;;;9.60;;
1136;SDS011;557;48.466;7.950;2022-12-18T11:38:06;21.40;;;9.93;;
1136;SDS011;557;48.466;7.950;2022-12-18T11:41:02;18.70;;;10.33;;
1136;SDS011;557;48.466;7.950;2022-12-18T11:43:54;26.60;;;12.20;;
1136;SDS011;557;48.466;7.950;2022-12-18T11:46:45;24.43;;;12.13;;
1136;SDS011;557;48.466;7.950;2022-12-18T11:49:36;21.90;;;9.70;;
1136;SDS011;557;48.466;7.950;2022-12-18T11:52:24;26.70;;;11.10;;
1136;SDS011;557;48.466;7.950;2022-12-18T11:55:14;31.00;;;11.63;;
1136;SDS011;557;48.466;7.950;2022-12-18T11:58:07;26.07;;;11.00;;
1136;SDS011;557;48.466;7.950;2022-12-18T12:01:00;23.60;;;9.33;;
1136;SDS011;557;48.466;7.950;2022-12-18T12:04:06;28.33;;;12.50;;
1136;SDS011;557;48.466;7.950;2022-12-18T12:07:25;23.90;;;11.23;;
1136;SDS011;557;48.466;7.950;2022-12-18T12:10:22;25.93;;;10.77;;
1136;SDS011;557;48.466;7.950;2022-12-18T12:13:23;33.83;;;10.70;;
1136;SDS011;557;48.466;7.950;2022-12-18T12:16:23;34.53;;;11.80;;
1136;SDS011;557;48.466;7.950;2022-12-18T12:19:23;22.00;;;9.17;;
1136;SDS011;557;48.466;7.950;2022-12-18T12:22:24;31.33;;;12.97;;
1136;SDS011;557;48.466;7.950;2022-12-18T12:25:20;32.97;;;13.03;;
1136;SDS011;557;48.466;7.950;2022-12-18T12:28:17;30.60;;;13.37;;
1136;SDS011;557;48.466;7.950;2022-12-18T12:31:14;25.87;;;12.93;;
1136;SDS011;557;48.466;7.950;2022-12-18T12:34:13;28.93;;;11.43;;
1136;SDS011;557;48.466;7.950;2022-12-18T12:37:07;29.80;;;12.70;;
1136;SDS011;557;48.466;7.950;2022-12-18T12:40:05;26.93;;;12.07;;
1136;SDS011;557;48.466;7.950;2022-12-18T12:42:52;32.17;;;13.97;;
1136;SDS011;557;48.466;7.950;2022-12-18T12:46:03;44.13;;;13.47;;
1136;SDS011;557;48.466;7.950;2022-12-18T12:48:53;28.40;;;13.17;;
1136;SDS011;557;48.466;7.950;2022-12-18T12:51:43;24.90;;;12.00;;
1136;SDS011;557;48.466;7.950;2022-12-18T12:54:31;30.57;;;14.70;;
1136;SDS011;557;48.466;7.950;2022-12-18T12:57:29;32.50;;;14.40;;
1136;SDS011;557;48.466;7.950;2022-12-18T13:00:20;33.57;;;14.03;;
1136;SDS011;557;48.466;7.950;2022-12-18T13:03:08;32.03;;;14.10;;
1136;SDS011;557;48.466;7.950;2022-12-18T13:06:03;32.80;;;15.63;;
1136;SDS011;557;48.466;7.950;2022-12-18T13:08:58;34.83;;;14.80;;
1136;SDS011;557;48.466;7.950;2022-12-18T13:11:45;37.37;;;13.77;;
1136;SDS011;557;48.466;7.950;2022-12-18T13:14:50;29.47;;;13.47;;
1136;SDS011;557;48.466;7.950;2022-12-18T13:17:36;36.17;;;14.90;;
1136;SDS011;557;48.466;7.950;2022-12-18T13:23:35;45.97;;;15.23;;
1136;SDS011;557;48.466;7.950;2022-12-18T13:26:33;36.30;;;15.50;;
1136;SDS011;557;48.466;7.950;2022-12-18T13:32:27;36.00;;;15.90;;
1136;SDS011;557;48.466;7.950;2022-12-18T13:38:31;41.73;;;14.57;;
1136;SDS011;557;48.466;7.950;2022-12-18T13:41:22;32.90;;;14.70;;
1136;SDS011;557;48.466;7.950;2022-12-18T13:44:12;37.23;;;14.33;;
1136;SDS011;557;48.466;7.950;2022-12-18T13:47:24;32.00;;;11.63;;
1136;SDS011;557;48.466;7.950;2022-12-18T13:50:20;40.13;;;14.13;;
1136;SDS011;557;48.466;7.950;2022-12-18T13:53:15;37.20;;;14.87;;
1136;SDS011;557;48.466;7.950;2022-12-18T13:56:06;33.70;;;15.10;;
1136;SDS011;557;48.466;7.950;2022-12-18T13:59:14;34.40;;;14.23;;
1136;SDS011;557;48.466;7.950;2022-12-18T14:02:07;37.20;;;13.30;;
1136;SDS011;557;48.466;7.950;2022-12-18T14:04:57;31.50;;;14.10;;
1136;SDS011;557;48.466;7.950;2022-12-18T14:07:48;30.10;;;14.10;;
1136;SDS011;557;48.466;7.950;2022-12-18T14:10:34;34.73;;;15.77;;
1136;SDS011;557;48.466;7.950;2022-12-18T14:13:22;35.53;;;14.77;;
1136;SDS011;557;48.466;7.950;2022-12-18T14:16:13;33.70;;;14.30;;
1136;SDS011;557;48.466;7.950;2022-12-18T14:19:00;32.77;;;13.63;;
1136;SDS011;557;48.466;7.950;2022-12-18T14:21:47;38.60;;;13.93;;
1136;SDS011;557;48.466;7.950;2022-12-18T14:24:34;27.60;;;14.20;;
1136;SDS011;557;48.466;7.950;2022-12-18T14:27:21;37.57;;;13.83;;
1136;SDS011;557;48.466;7.950;2022-12-18T14:30:22;30.83;;;14.50;;
1136;SDS011;557;48.466;7.950;2022-12-18T14:33:14;40.53;;;15.03;;
1136;SDS011;557;48.466;7.950;2022-12-18T14:36:03;34.00;;;15.53;;
1136;SDS011;557;48.466;7.950;2022-12-18T14:38:50;37.10;;;15.20;;
1136;SDS011;557;48.466;7.950;2022-12-18T14:41:39;33.00;;;14.50;;
1136;SDS011;557;48.466;7.950;2022-12-18T14:44:24;29.43;;;12.10;;
1136;SDS011;557;48.466;7.950;2022-12-18T14:47:13;40.97;;;16.37;;
1136;SDS011;557;48.466;7.950;2022-12-18T14:50:01;24.73;;;11.27;;
1136;SDS011;557;48.466;7.950;2022-12-18T14:52:47;40.67;;;15.60;;
1136;SDS011;557;48.466;7.950;2022-12-18T14:55:33;34.83;;;13.50;;
1136;SDS011;557;48.466;7.950;2022-12-18T14:58:19;30.90;;;12.40;;
1136;SDS011;557;48.466;7.950;2022-12-18T15:01:04;25.93;;;12.67;;
1136;SDS011;557;48.466;7.950;2022-12-18T15:03:51;31.90;;;12.47;;
1136;SDS011;557;48.466;7.950;2022-12-18T15:06:44;37.77;;;15.83;;
1136;SDS011;557;48.466;7.950;2022-12-18T15:09:31;32.93;;;12.20;;
1136;SDS011;557;48.466;7.950;2022-12-18T15:12:22;34.77;;;13.17;;
1136;SDS011;557;48.466;7.950;2022-12-18T15:18:32;43.80;;;16.00;;
1136;SDS011;557;48.466;7.950;2022-12-18T15:21:20;40.17;;;15.63;;
1136;SDS011;557;48.466;7.950;2022-12-18T15:24:14;30.17;;;12.77;;
1136;SDS011;557;48.466;7.950;2022-12-18T15:27:04;37.03;;;14.70;;
1136;SDS011;557;48.466;7.950;2022-12-18T15:30:17;40.20;;;18.07;;
1136;SDS011;557;48.466;7.950;2022-12-18T15:33:16;23.63;;;12.77;;
1136;SDS011;557;48.466;7.950;2022-12-18T15:36:08;34.40;;;15.03;;
1136;SDS011;557;48.466;7.950;2022-12-18T15:38:56;32.70;;;13.43;;
1136;SDS011;557;48.466;7.950;2022-12-18T15:41:44;38.97;;;14.17;;
1136;SDS011;557;48.466;7.950;2022-12-18T15:44:44;31.47;;;13.83;;
1136;SDS011;557;48.466;7.950;2022-12-18T15:47:30;25.13;;;14.00;;
1136;SDS011;557;48.466;7.950;2022-12-18T15:50:16;40.00;;;15.50;;
1136;SDS011;557;48.466;7.950;2022-12-18T15:53:07;36.30;;;14.60;;
1136;SDS011;557;48.466;7.950;2022-12-18T15:56:00;38.10;;;16.70;;
1136;SDS011;557;48.466;7.950;2022-12-18T15:59:07;57.23;;;21.40;;
1136;SDS011;557;48.466;7.950;2022-12-18T16:01:55;49.53;;;20.73;;
1136;SDS011;557;48.466;7.950;2022-12-18T16:04:43;37.23;;;16.50;;
1136;SDS011;557;48.466;7.950;2022-12-18T16:07:30;46.30;;;19.20;;
1136;SDS011;557;48.466;7.950;2022-12-18T16:10:16;44.33;;;16.47;;
1136;SDS011;557;48.466;7.950;2022-12-18T16:13:02;39.53;;;19.40;;
1136;SDS011;557;48.466;7.950;2022-12-18T16:15:49;32.67;;;15.97;;
1136;SDS011;557;48.466;7.950;2022-12-18T16:18:34;35.33;;;16.10;;
1136;SDS011;557;48.466;7.950;2022-12-18T16:21:20;49.77;;;19.60;;
1136;SDS011;557;48.466;7.950;2022-12-18T16:24:14;38.20;;;18.10;;
1136;SDS011;557;48.466;7.950;2022-12-18T16:27:01;35.50;;;15.77;;
1136;SDS011;557;48.466;7.950;2022-12-18T16:29:47;39.63;;;17.80;;
1136;SDS011;557;48.466;7.950;2022-12-18T16:32:34;38.63;;;16.30;;
1136;SDS011;557;48.466;7.950;2022-12-18T16:35:20;52.97;;;17.97;;
1136;SDS011;557;48.466;7.950;2022-12-18T16:38:06;41.77;;;18.10;;
1136;SDS011;557;48.466;7.950;2022-12-18T16:40:51;36.60;;;17.10;;
1136;SDS011;557;48.466;7.950;2022-12-18T16:43:56;39.60;;;19.50;;
1136;SDS011;557;48.466;7.950;2022-12-18T16:46:42;53.73;;;20.67;;
1136;SDS011;557;48.466;7.950;2022-12-18T16:49:30;49.80;;;19.80;;
1136;SDS011;557;48.466;7.950;2022-12-18T16:52:16;38.50;;;16.70;;
1136;SDS011;557;48.466;7.950;2022-12-18T16:55:04;40.33;;;15.67;;
1136;SDS011;557;48.466;7.950;2022-12-18T16:57:51;45.43;;;20.57;;
1136;SDS011;557;48.466;7.950;2022-12-18T17:00:37;41.80;;;17.00;;
1136;SDS011;557;48.466;7.950;2022-12-18T17:03:24;46.53;;;19.17;;
1136;SDS011;557;48.466;7.950;2022-12-18T17:06:18;45.40;;;19.30;;
1136;SDS011;557;48.466;7.950;2022-12-18T17:09:05;38.90;;;16.97;;
1136;SDS011;557;48.466;7.950;2022-12-18T17:11:53;44.33;;;19.83;;
1136;SDS011;557;48.466;7.950;2022-12-18T17:14:39;41.80;;;18.87;;
1136;SDS011;557;48.466;7.950;2022-12-18T17:17:25;41.20;;;17.67;;
1136;SDS011;557;48.466;7.950;2022-12-18T17:20:11;55.47;;;20.23;;
1136;SDS011;557;48.466;7.950;2022-12-18T17:22:59;36.20;;;20.10;;
1136;SDS011;557;48.466;7.950;2022-12-18T17:25:44;49.70;;;18.60;;
1136;SDS011;557;48.466;7.950;2022-12-18T17:28:32;39.30;;;15.00;;
1136;SDS011;557;48.466;7.950;2022-12-18T17:31:22;41.63;;;18.50;;
1136;SDS011;557;48.466;7.950;2022-12-18T17:34:09;44.63;;;16.57;;
1136;SDS011;557;48.466;7.950;2022-12-18T17:36:56;31.07;;;15.07;;
1136;SDS011;557;48.466;7.950;2022-12-18T17:39:43;37.60;;;19.10;;